sensor_id;sensor_type;location;lat;lon;timestamp;temperature;humidity
29571;DHT22;16814;52.118;11.436;2024-01-30T00:02:15;3.50;99.90
29571;DHT22;16814;52.118;11.436;2024-01-30T00:04:40;3.50;99.90
29571;DHT22;16814;52.118;11.436;2024-01-30T00:07:06;3.60;99.90
29571;DHT22;16814;52.118;11.436;2024-01-30T00:09:31;3.50;99.90
29571;DHT22;16814;52.118;11.436;2024-01-30T00:11:57;3.60;99.90
29571;DHT22;16814;52.118;11.436;2024-01-30T00:14:22;3.60;99.90
29571;DHT22;16814;52.118;11.436;2024-01-30T00:16:48;3.50;99.90
29571;DHT22;16814;52.118;11.436;2024-01-30T00:19:14;3.40;99.90
29571;DHT22;16814;52.118;11.436;2024-01-30T00:21:39;3.30;99.90
29571;DHT22;16814;52.118;11.436;2024-01-30T00:24:05;3.20;99.90
29571;DHT22;16814;52.118;11.436;2024-01-30T00:26:31;3.10;99.90
29571;DHT22;16814;52.118;11.436;2024-01-30T00:28:56;3.20;99.90
29571;DHT22;16814;52.118;11.436;2024-01-30T00:31:22;3.30;99.90
29571;DHT22;16814;52.118;11.436;2024-01-30T00:33:47;3.50;99.90
29571;DHT22;16814;52.118;11.436;2024-01-30T00:36:13;3.50;99.90
29571;DHT22;16814;52.118;11.436;2024-01-30T00:38:38;3.50;99.90
29571;DHT22;16814;52.118;11.436;2024-01-30T00:41:04;3.50;99.90
29571;DHT22;16814;52.118;11.436;2024-01-30T00:43:30;3.40;99.90
29571;DHT22;16814;52.118;11.436;2024-01-30T00:45:56;3.50;99.90
29571;DHT22;16814;52.118;11.436;2024-01-30T00:48:22;3.50;99.90
29571;DHT22;16814;52.118;11.436;2024-01-30T00:50:48;3.60;99.90
29571;DHT22;16814;52.118;11.436;2024-01-30T00:53:13;3.60;99.90
29571;DHT22;16814;52.118;11.436;2024-01-30T00:55:39;3.60;99.90
29571;DHT22;16814;52.118;11.436;2024-01-30T00:58:04;3.80;99.90
29571;DHT22;16814;52.118;11.436;2024-01-30T01:00:30;3.70;99.90
29571;DHT22;16814;52.118;11.436;2024-01-30T01:02:57;3.80;99.90
29571;DHT22;16814;52.118;11.436;2024-01-30T01:05:23;3.70;99.90
29571;DHT22;16814;52.118;11.436;2024-01-30T01:07:48;3.40;99.90
29571;DHT22;16814;52.118;11.436;2024-01-30T01:10:14;3.30;99.90
29571;DHT22;16814;52.118;11.436;2024-01-30T01:12:41;3.30;99.90
29571;DHT22;16814;52.118;11.436;2024-01-30T01:15:07;3.20;99.90
29571;DHT22;16814;52.118;11.436;2024-01-30T01:17:38;3.20;99.90
29571;DHT22;16814;52.118;11.436;2024-01-30T01:20:04;3.20;99.90
29571;DHT22;16814;52.118;11.436;2024-01-30T01:22:34;3.20;99.90
29571;DHT22;16814;52.118;11.436;2024-01-30T01:25:00;3.30;99.90
29571;DHT22;16814;52.118;11.436;2024-01-30T01:27:26;3.30;99.90
29571;DHT22;16814;52.118;11.436;2024-01-30T01:29:52;3.40;99.90
29571;DHT22;16814;52.118;11.436;2024-01-30T01:32:18;3.40;99.90
29571;DHT22;16814;52.118;11.436;2024-01-30T01:34:44;3.40;99.90
29571;DHT22;16814;52.118;11.436;2024-01-30T01:37:11;3.30;99.90
29571;DHT22;16814;52.118;11.436;2024-01-30T01:39:37;3.30;99.90
29571;DHT22;16814;52.118;11.436;2024-01-30T01:42:03;3.20;99.90
29571;DHT22;16814;52.118;11.436;2024-01-30T01:44:28;3.10;99.90
29571;DHT22;16814;52.118;11.436;2024-01-30T01:46:54;3.00;99.90
29571;DHT22;16814;52.118;11.436;2024-01-30T01:49:22;2.90;99.90
29571;DHT22;16814;52.118;11.436;2024-01-30T01:51:48;2.80;99.90
29571;DHT22;16814;52.118;11.436;2024-01-30T01:54:14;2.70;99.90
29571;DHT22;16814;52.118;11.436;2024-01-30T01:56:42;2.60;99.90
29571;DHT22;16814;52.118;11.436;2024-01-30T01:59:08;2.70;99.90
29571;DHT22;16814;52.118;11.436;2024-01-30T02:01:36;2.70;99.90
29571;DHT22;16814;52.118;11.436;2024-01-30T02:04:02;2.90;99.90
29571;DHT22;16814;52.118;11.436;2024-01-30T02:06:28;3.10;99.90
29571;DHT22;16814;52.118;11.436;2024-01-30T02:08:56;3.20;99.90
29571;DHT22;16814;52.118;11.436;2024-01-30T02:11:22;3.20;99.90
29571;DHT22;16814;52.118;11.436;2024-01-30T02:13:49;3.20;99.90
29571;DHT22;16814;52.118;11.436;2024-01-30T02:16:14;3.20;99.90
29571;DHT22;16814;52.118;11.436;2024-01-30T02:18:40;3.00;99.90
29571;DHT22;16814;52.118;11.436;2024-01-30T02:21:12;3.00;99.90
29571;DHT22;16814;52.118;11.436;2024-01-30T02:23:39;3.00;99.90
29571;DHT22;16814;52.118;11.436;2024-01-30T02:26:06;3.00;99.90
29571;DHT22;16814;52.118;11.436;2024-01-30T02:28:31;3.00;99.90
29571;DHT22;16814;52.118;11.436;2024-01-30T02:30:57;3.00;99.90
29571;DHT22;16814;52.118;11.436;2024-01-30T02:33:22;3.00;99.90
29571;DHT22;16814;52.118;11.436;2024-01-30T02:35:48;3.10;99.90
29571;DHT22;16814;52.118;11.436;2024-01-30T02:38:15;2.90;99.90
29571;DHT22;16814;52.118;11.436;2024-01-30T02:40:41;2.70;99.90
29571;DHT22;16814;52.118;11.436;2024-01-30T02:43:06;2.80;99.90
29571;DHT22;16814;52.118;11.436;2024-01-30T02:45:32;2.60;99.90
29571;DHT22;16814;52.118;11.436;2024-01-30T02:47:57;2.60;99.90
29571;DHT22;16814;52.118;11.436;2024-01-30T02:50:23;2.60;99.90
29571;DHT22;16814;52.118;11.436;2024-01-30T02:52:48;2.60;99.90
29571;DHT22;16814;52.118;11.436;2024-01-30T02:55:14;2.80;99.90
29571;DHT22;16814;52.118;11.436;2024-01-30T02:57:42;2.80;99.90
29571;DHT22;16814;52.118;11.436;2024-01-30T03:00:08;2.70;99.90
29571;DHT22;16814;52.118;11.436;2024-01-30T03:02:35;2.50;99.90
29571;DHT22;16814;52.118;11.436;2024-01-30T03:05:01;2.40;99.90
29571;DHT22;16814;52.118;11.436;2024-01-30T03:07:26;2.30;99.90
29571;DHT22;16814;52.118;11.436;2024-01-30T03:09:52;2.30;99.90
29571;DHT22;16814;52.118;11.436;2024-01-30T03:12:18;2.50;99.90
29571;DHT22;16814;52.118;11.436;2024-01-30T03:14:43;2.50;99.90
29571;DHT22;16814;52.118;11.436;2024-01-30T03:17:09;2.60;99.90
29571;DHT22;16814;52.118;11.436;2024-01-30T03:19:34;2.70;99.90
29571;DHT22;16814;52.118;11.436;2024-01-30T03:22:00;2.70;99.90
29571;DHT22;16814;52.118;11.436;2024-01-30T03:24:25;2.60;99.90
29571;DHT22;16814;52.118;11.436;2024-01-30T03:26:51;2.40;99.90
29571;DHT22;16814;52.118;11.436;2024-01-30T03:29:16;2.40;99.90
29571;DHT22;16814;52.118;11.436;2024-01-30T03:31:42;2.30;99.90
29571;DHT22;16814;52.118;11.436;2024-01-30T03:34:07;2.30;99.90
29571;DHT22;16814;52.118;11.436;2024-01-30T03:36:33;2.30;99.90
29571;DHT22;16814;52.118;11.436;2024-01-30T03:39:00;2.20;99.90
29571;DHT22;16814;52.118;11.436;2024-01-30T03:41:26;2.20;99.90
29571;DHT22;16814;52.118;11.436;2024-01-30T03:43:51;2.30;99.90
29571;DHT22;16814;52.118;11.436;2024-01-30T03:46:17;2.40;99.90
29571;DHT22;16814;52.118;11.436;2024-01-30T03:48:42;2.50;99.90
29571;DHT22;16814;52.118;11.436;2024-01-30T03:51:09;2.40;99.90
29571;DHT22;16814;52.118;11.436;2024-01-30T03:53:42;2.60;99.90
29571;DHT22;16814;52.118;11.436;2024-01-30T03:56:08;2.50;99.90
29571;DHT22;16814;52.118;11.436;2024-01-30T03:58:34;2.50;99.90
29571;DHT22;16814;52.118;11.436;2024-01-30T04:00:59;2.50;99.90
29571;DHT22;16814;52.118;11.436;2024-01-30T04:03:25;2.40;99.90
29571;DHT22;16814;52.118;11.436;2024-01-30T04:05:54;2.20;99.90
29571;DHT22;16814;52.118;11.436;2024-01-30T04:08:20;2.10;99.90
29571;DHT22;16814;52.118;11.436;2024-01-30T04:10:46;2.00;99.90
29571;DHT22;16814;52.118;11.436;2024-01-30T04:13:12;2.00;99.90
29571;DHT22;16814;52.118;11.436;2024-01-30T04:15:38;1.90;99.90
29571;DHT22;16814;52.118;11.436;2024-01-30T04:18:04;1.90;99.90
29571;DHT22;16814;52.118;11.436;2024-01-30T04:20:29;2.00;99.90
29571;DHT22;16814;52.118;11.436;2024-01-30T04:22:55;2.20;99.90
29571;DHT22;16814;52.118;11.436;2024-01-30T04:25:20;2.20;99.90
29571;DHT22;16814;52.118;11.436;2024-01-30T04:27:46;2.20;99.90
29571;DHT22;16814;52.118;11.436;2024-01-30T04:30:11;2.10;99.90
29571;DHT22;16814;52.118;11.436;2024-01-30T04:32:37;2.20;99.90
29571;DHT22;16814;52.118;11.436;2024-01-30T04:35:03;2.30;99.90
29571;DHT22;16814;52.118;11.436;2024-01-30T04:37:29;2.40;99.90
29571;DHT22;16814;52.118;11.436;2024-01-30T04:39:54;2.50;99.90
29571;DHT22;16814;52.118;11.436;2024-01-30T04:42:20;2.60;99.90
29571;DHT22;16814;52.118;11.436;2024-01-30T04:44:45;2.60;99.90
29571;DHT22;16814;52.118;11.436;2024-01-30T04:47:11;2.70;99.90
29571;DHT22;16814;52.118;11.436;2024-01-30T04:49:39;2.80;99.90
29571;DHT22;16814;52.118;11.436;2024-01-30T04:52:05;2.90;99.90
29571;DHT22;16814;52.118;11.436;2024-01-30T04:54:31;3.00;99.90
29571;DHT22;16814;52.118;11.436;2024-01-30T04:56:56;3.00;99.90
29571;DHT22;16814;52.118;11.436;2024-01-30T04:59:22;3.00;99.90
29571;DHT22;16814;52.118;11.436;2024-01-30T05:01:47;3.00;99.90
29571;DHT22;16814;52.118;11.436;2024-01-30T05:04:13;2.90;99.90
29571;DHT22;16814;52.118;11.436;2024-01-30T05:06:38;2.90;99.90
29571;DHT22;16814;52.118;11.436;2024-01-30T05:09:04;2.90;99.90
29571;DHT22;16814;52.118;11.436;2024-01-30T05:11:30;2.90;99.90
29571;DHT22;16814;52.118;11.436;2024-01-30T05:13:55;3.00;99.90
29571;DHT22;16814;52.118;11.436;2024-01-30T05:16:21;3.00;99.90
29571;DHT22;16814;52.118;11.436;2024-01-30T05:18:46;3.00;99.90
29571;DHT22;16814;52.118;11.436;2024-01-30T05:21:12;3.00;99.90
29571;DHT22;16814;52.118;11.436;2024-01-30T05:23:37;3.00;99.90
29571;DHT22;16814;52.118;11.436;2024-01-30T05:26:03;3.00;99.90
29571;DHT22;16814;52.118;11.436;2024-01-30T05:28:29;2.70;99.90
29571;DHT22;16814;52.118;11.436;2024-01-30T05:30:56;2.60;99.90
29571;DHT22;16814;52.118;11.436;2024-01-30T05:33:21;2.30;99.90
29571;DHT22;16814;52.118;11.436;2024-01-30T05:35:47;2.20;99.90
29571;DHT22;16814;52.118;11.436;2024-01-30T05:38:15;2.10;99.90
29571;DHT22;16814;52.118;11.436;2024-01-30T05:40:40;2.10;99.90
29571;DHT22;16814;52.118;11.436;2024-01-30T05:43:06;2.20;99.90
29571;DHT22;16814;52.118;11.436;2024-01-30T05:45:33;2.10;99.90
29571;DHT22;16814;52.118;11.436;2024-01-30T05:47:59;2.10;99.90
29571;DHT22;16814;52.118;11.436;2024-01-30T05:50:25;2.10;99.90
29571;DHT22;16814;52.118;11.436;2024-01-30T05:52:51;2.10;99.90
29571;DHT22;16814;52.118;11.436;2024-01-30T05:55:17;2.20;99.90
29571;DHT22;16814;52.118;11.436;2024-01-30T05:57:42;2.20;99.90
29571;DHT22;16814;52.118;11.436;2024-01-30T06:00:08;2.30;99.90
29571;DHT22;16814;52.118;11.436;2024-01-30T06:02:34;2.20;99.90
29571;DHT22;16814;52.118;11.436;2024-01-30T06:04:59;2.20;99.90
29571;DHT22;16814;52.118;11.436;2024-01-30T06:07:25;2.10;99.90
29571;DHT22;16814;52.118;11.436;2024-01-30T06:09:50;2.20;99.90
29571;DHT22;16814;52.118;11.436;2024-01-30T06:12:16;2.20;99.90
29571;DHT22;16814;52.118;11.436;2024-01-30T06:14:41;2.20;99.90
29571;DHT22;16814;52.118;11.436;2024-01-30T06:17:08;2.20;99.90
29571;DHT22;16814;52.118;11.436;2024-01-30T06:19:34;2.10;99.90
29571;DHT22;16814;52.118;11.436;2024-01-30T06:21:59;2.20;99.90
29571;DHT22;16814;52.118;11.436;2024-01-30T06:24:25;2.20;99.90
29571;DHT22;16814;52.118;11.436;2024-01-30T06:26:51;2.20;99.90
29571;DHT22;16814;52.118;11.436;2024-01-30T06:29:17;2.30;99.90
29571;DHT22;16814;52.118;11.436;2024-01-30T06:31:42;2.30;99.90
29571;DHT22;16814;52.118;11.436;2024-01-30T06:34:11;2.30;99.90
29571;DHT22;16814;52.118;11.436;2024-01-30T06:36:37;2.10;99.90
29571;DHT22;16814;52.118;11.436;2024-01-30T06:39:03;2.10;99.90
29571;DHT22;16814;52.118;11.436;2024-01-30T06:41:29;1.90;99.90
29571;DHT22;16814;52.118;11.436;2024-01-30T06:43:55;2.10;99.90
29571;DHT22;16814;52.118;11.436;2024-01-30T06:46:21;2.10;99.90
29571;DHT22;16814;52.118;11.436;2024-01-30T06:48:46;2.10;99.90
29571;DHT22;16814;52.118;11.436;2024-01-30T06:51:12;2.00;99.90
29571;DHT22;16814;52.118;11.436;2024-01-30T06:53:38;2.00;99.90
29571;DHT22;16814;52.118;11.436;2024-01-30T06:56:04;2.00;99.90
29571;DHT22;16814;52.118;11.436;2024-01-30T06:58:29;2.10;99.90
29571;DHT22;16814;52.118;11.436;2024-01-30T07:00:56;2.10;99.90
29571;DHT22;16814;52.118;11.436;2024-01-30T07:03:21;2.10;99.90
29571;DHT22;16814;52.118;11.436;2024-01-30T07:05:47;2.10;99.90
29571;DHT22;16814;52.118;11.436;2024-01-30T07:08:13;2.20;99.90
29571;DHT22;16814;52.118;11.436;2024-01-30T07:10:38;2.20;99.90
29571;DHT22;16814;52.118;11.436;2024-01-30T07:13:04;2.20;99.90
29571;DHT22;16814;52.118;11.436;2024-01-30T07:15:31;2.20;99.90
29571;DHT22;16814;52.118;11.436;2024-01-30T07:17:56;2.20;99.90
29571;DHT22;16814;52.118;11.436;2024-01-30T07:20:22;2.20;99.90
29571;DHT22;16814;52.118;11.436;2024-01-30T07:22:48;2.20;99.90
29571;DHT22;16814;52.118;11.436;2024-01-30T07:25:13;2.30;99.90
29571;DHT22;16814;52.118;11.436;2024-01-30T07:27:39;2.30;99.90
29571;DHT22;16814;52.118;11.436;2024-01-30T07:30:05;2.40;99.90
29571;DHT22;16814;52.118;11.436;2024-01-30T07:32:31;2.40;99.90
29571;DHT22;16814;52.118;11.436;2024-01-30T07:34:57;2.40;99.90
29571;DHT22;16814;52.118;11.436;2024-01-30T07:37:22;2.40;99.90
29571;DHT22;16814;52.118;11.436;2024-01-30T07:39:48;2.40;99.90
29571;DHT22;16814;52.118;11.436;2024-01-30T07:42:13;2.50;99.90
29571;DHT22;16814;52.118;11.436;2024-01-30T07:44:39;2.60;99.90
29571;DHT22;16814;52.118;11.436;2024-01-30T07:47:05;2.70;99.90
29571;DHT22;16814;52.118;11.436;2024-01-30T07:49:30;2.80;99.90
29571;DHT22;16814;52.118;11.436;2024-01-30T07:51:56;2.90;99.90
29571;DHT22;16814;52.118;11.436;2024-01-30T07:54:21;2.80;99.90
29571;DHT22;16814;52.118;11.436;2024-01-30T07:56:47;2.80;99.90
29571;DHT22;16814;52.118;11.436;2024-01-30T07:59:12;2.80;99.90
29571;DHT22;16814;52.118;11.436;2024-01-30T08:01:38;2.80;99.90
29571;DHT22;16814;52.118;11.436;2024-01-30T08:04:04;2.90;99.90
29571;DHT22;16814;52.118;11.436;2024-01-30T08:06:29;3.00;99.90
29571;DHT22;16814;52.118;11.436;2024-01-30T08:08:55;2.90;99.90
29571;DHT22;16814;52.118;11.436;2024-01-30T08:11:21;3.00;99.90
29571;DHT22;16814;52.118;11.436;2024-01-30T08:13:52;3.10;99.90
29571;DHT22;16814;52.118;11.436;2024-01-30T08:16:17;3.20;99.90
29571;DHT22;16814;52.118;11.436;2024-01-30T08:18:43;3.20;99.90
29571;DHT22;16814;52.118;11.436;2024-01-30T08:21:09;3.30;99.90
29571;DHT22;16814;52.118;11.436;2024-01-30T08:23:34;3.40;99.90
29571;DHT22;16814;52.118;11.436;2024-01-30T08:26:00;3.40;99.90
29571;DHT22;16814;52.118;11.436;2024-01-30T08:28:25;3.40;99.90
29571;DHT22;16814;52.118;11.436;2024-01-30T08:30:51;3.50;99.90
29571;DHT22;16814;52.118;11.436;2024-01-30T08:33:17;3.50;99.90
29571;DHT22;16814;52.118;11.436;2024-01-30T08:35:42;3.50;99.90
29571;DHT22;16814;52.118;11.436;2024-01-30T08:38:08;3.60;99.90
29571;DHT22;16814;52.118;11.436;2024-01-30T08:40:34;3.80;99.90
29571;DHT22;16814;52.118;11.436;2024-01-30T08:43:00;3.90;99.90
29571;DHT22;16814;52.118;11.436;2024-01-30T08:45:25;4.00;99.90
29571;DHT22;16814;52.118;11.436;2024-01-30T08:47:51;4.20;99.90
29571;DHT22;16814;52.118;11.436;2024-01-30T08:50:16;4.20;99.90
29571;DHT22;16814;52.118;11.436;2024-01-30T08:52:42;4.30;99.90
29571;DHT22;16814;52.118;11.436;2024-01-30T08:55:08;4.40;99.90
29571;DHT22;16814;52.118;11.436;2024-01-30T08:57:33;4.30;99.90
29571;DHT22;16814;52.118;11.436;2024-01-30T08:59:59;4.50;99.90
29571;DHT22;16814;52.118;11.436;2024-01-30T09:02:24;4.60;99.90
29571;DHT22;16814;52.118;11.436;2024-01-30T09:04:50;4.60;99.90
29571;DHT22;16814;52.118;11.436;2024-01-30T09:07:15;4.60;99.90
29571;DHT22;16814;52.118;11.436;2024-01-30T09:09:41;4.70;99.90
29571;DHT22;16814;52.118;11.436;2024-01-30T09:12:07;4.70;99.90
29571;DHT22;16814;52.118;11.436;2024-01-30T09:14:38;4.80;99.90
29571;DHT22;16814;52.118;11.436;2024-01-30T09:17:04;4.80;99.90
29571;DHT22;16814;52.118;11.436;2024-01-30T09:19:30;4.90;99.90
29571;DHT22;16814;52.118;11.436;2024-01-30T09:21:56;5.00;99.90
29571;DHT22;16814;52.118;11.436;2024-01-30T09:24:21;5.10;99.90
29571;DHT22;16814;52.118;11.436;2024-01-30T09:26:46;5.10;99.90
29571;DHT22;16814;52.118;11.436;2024-01-30T09:29:12;5.10;99.90
29571;DHT22;16814;52.118;11.436;2024-01-30T09:31:37;5.10;99.90
29571;DHT22;16814;52.118;11.436;2024-01-30T09:34:03;5.10;99.90
29571;DHT22;16814;52.118;11.436;2024-01-30T09:36:28;5.20;99.90
29571;DHT22;16814;52.118;11.436;2024-01-30T09:38:54;5.30;99.90
29571;DHT22;16814;52.118;11.436;2024-01-30T09:41:20;5.40;99.90
29571;DHT22;16814;52.118;11.436;2024-01-30T09:43:48;5.50;99.90
29571;DHT22;16814;52.118;11.436;2024-01-30T09:46:17;5.60;99.90
29571;DHT22;16814;52.118;11.436;2024-01-30T09:48:46;5.70;99.90
29571;DHT22;16814;52.118;11.436;2024-01-30T09:51:14;5.80;99.90
29571;DHT22;16814;52.118;11.436;2024-01-30T09:53:42;5.80;99.90
29571;DHT22;16814;52.118;11.436;2024-01-30T09:56:08;5.90;99.90
29571;DHT22;16814;52.118;11.436;2024-01-30T09:58:34;5.90;99.90
29571;DHT22;16814;52.118;11.436;2024-01-30T10:00:59;6.00;99.90
29571;DHT22;16814;52.118;11.436;2024-01-30T10:03:25;6.10;99.90
29571;DHT22;16814;52.118;11.436;2024-01-30T10:05:52;6.20;99.90
29571;DHT22;16814;52.118;11.436;2024-01-30T10:08:18;6.30;99.90
29571;DHT22;16814;52.118;11.436;2024-01-30T10:10:47;6.30;99.90
29571;DHT22;16814;52.118;11.436;2024-01-30T10:13:13;6.50;99.90
29571;DHT22;16814;52.118;11.436;2024-01-30T10:15:39;6.60;99.90
29571;DHT22;16814;52.118;11.436;2024-01-30T10:18:05;6.60;99.90
29571;DHT22;16814;52.118;11.436;2024-01-30T10:20:32;6.70;99.90
29571;DHT22;16814;52.118;11.436;2024-01-30T10:22:58;6.80;99.90
29571;DHT22;16814;52.118;11.436;2024-01-30T10:25:23;6.90;99.90
29571;DHT22;16814;52.118;11.436;2024-01-30T10:27:53;7.00;99.90
29571;DHT22;16814;52.118;11.436;2024-01-30T10:30:24;7.00;99.90
29571;DHT22;16814;52.118;11.436;2024-01-30T10:32:50;7.00;99.90
29571;DHT22;16814;52.118;11.436;2024-01-30T10:35:16;7.10;99.90
29571;DHT22;16814;52.118;11.436;2024-01-30T10:37:43;7.10;99.90
29571;DHT22;16814;52.118;11.436;2024-01-30T10:40:13;7.20;99.90
29571;DHT22;16814;52.118;11.436;2024-01-30T10:42:42;7.20;99.90
29571;DHT22;16814;52.118;11.436;2024-01-30T10:45:14;7.20;99.90
29571;DHT22;16814;52.118;11.436;2024-01-30T10:47:49;7.40;99.90
29571;DHT22;16814;52.118;11.436;2024-01-30T10:50:15;7.60;99.90
29571;DHT22;16814;52.118;11.436;2024-01-30T10:52:41;7.60;99.90
29571;DHT22;16814;52.118;11.436;2024-01-30T10:55:10;7.70;99.90
29571;DHT22;16814;52.118;11.436;2024-01-30T10:57:36;7.90;99.90
29571;DHT22;16814;52.118;11.436;2024-01-30T11:00:04;7.90;99.90
29571;DHT22;16814;52.118;11.436;2024-01-30T11:02:41;8.00;99.90
29571;DHT22;16814;52.118;11.436;2024-01-30T11:05:09;7.90;99.90
29571;DHT22;16814;52.118;11.436;2024-01-30T11:07:34;7.80;99.90
29571;DHT22;16814;52.118;11.436;2024-01-30T11:10:02;7.80;99.90
29571;DHT22;16814;52.118;11.436;2024-01-30T11:12:30;7.90;99.90
29571;DHT22;16814;52.118;11.436;2024-01-30T11:15:06;8.10;99.90
29571;DHT22;16814;52.118;11.436;2024-01-30T11:17:43;8.20;99.90
29571;DHT22;16814;52.118;11.436;2024-01-30T11:20:15;8.30;99.90
29571;DHT22;16814;52.118;11.436;2024-01-30T11:22:43;8.40;99.90
29571;DHT22;16814;52.118;11.436;2024-01-30T11:25:14;8.50;99.90
29571;DHT22;16814;52.118;11.436;2024-01-30T11:27:41;8.60;99.90
29571;DHT22;16814;52.118;11.436;2024-01-30T11:30:07;8.60;99.90
29571;DHT22;16814;52.118;11.436;2024-01-30T11:32:33;8.70;99.90
29571;DHT22;16814;52.118;11.436;2024-01-30T11:34:59;8.70;99.90
29571;DHT22;16814;52.118;11.436;2024-01-30T11:37:25;8.90;99.90
29571;DHT22;16814;52.118;11.436;2024-01-30T11:39:54;8.90;99.90
29571;DHT22;16814;52.118;11.436;2024-01-30T11:42:23;9.10;99.90
29571;DHT22;16814;52.118;11.436;2024-01-30T11:44:50;9.10;99.90
29571;DHT22;16814;52.118;11.436;2024-01-30T11:47:16;9.10;99.90
29571;DHT22;16814;52.118;11.436;2024-01-30T11:49:43;9.20;99.90
29571;DHT22;16814;52.118;11.436;2024-01-30T11:52:09;9.10;99.90
29571;DHT22;16814;52.118;11.436;2024-01-30T11:54:34;9.10;99.90
29571;DHT22;16814;52.118;11.436;2024-01-30T11:57:00;9.20;99.90
29571;DHT22;16814;52.118;11.436;2024-01-30T11:59:26;9.20;99.90
29571;DHT22;16814;52.118;11.436;2024-01-30T12:01:54;9.20;99.90
29571;DHT22;16814;52.118;11.436;2024-01-30T12:04:20;9.30;99.90
29571;DHT22;16814;52.118;11.436;2024-01-30T12:06:45;9.30;99.90
29571;DHT22;16814;52.118;11.436;2024-01-30T12:09:16;9.30;99.90
29571;DHT22;16814;52.118;11.436;2024-01-30T12:11:49;9.30;99.90
29571;DHT22;16814;52.118;11.436;2024-01-30T12:14:16;9.30;99.90
29571;DHT22;16814;52.118;11.436;2024-01-30T12:16:42;9.40;99.90
29571;DHT22;16814;52.118;11.436;2024-01-30T12:19:08;9.50;99.90
29571;DHT22;16814;52.118;11.436;2024-01-30T12:21:34;9.60;99.90
29571;DHT22;16814;52.118;11.436;2024-01-30T12:24:00;9.60;99.90
29571;DHT22;16814;52.118;11.436;2024-01-30T12:26:26;9.60;99.90
29571;DHT22;16814;52.118;11.436;2024-01-30T12:28:55;9.60;99.90
29571;DHT22;16814;52.118;11.436;2024-01-30T12:31:32;9.60;99.90
29571;DHT22;16814;52.118;11.436;2024-01-30T12:34:00;9.60;99.90
29571;DHT22;16814;52.118;11.436;2024-01-30T12:36:25;9.70;99.90
29571;DHT22;16814;52.118;11.436;2024-01-30T12:38:51;9.70;99.90
29571;DHT22;16814;52.118;11.436;2024-01-30T12:41:17;9.70;99.90
29571;DHT22;16814;52.118;11.436;2024-01-30T12:43:43;9.80;99.90
29571;DHT22;16814;52.118;11.436;2024-01-30T12:46:09;9.80;99.90
29571;DHT22;16814;52.118;11.436;2024-01-30T12:48:34;9.80;99.90
29571;DHT22;16814;52.118;11.436;2024-01-30T12:51:00;9.90;99.90
29571;DHT22;16814;52.118;11.436;2024-01-30T12:53:26;9.90;99.90
29571;DHT22;16814;52.118;11.436;2024-01-30T12:55:51;9.90;99.90
29571;DHT22;16814;52.118;11.436;2024-01-30T12:58:19;10.00;99.90
29571;DHT22;16814;52.118;11.436;2024-01-30T13:00:45;10.10;99.90
29571;DHT22;16814;52.118;11.436;2024-01-30T13:03:11;10.10;99.90
29571;DHT22;16814;52.118;11.436;2024-01-30T13:05:37;10.00;99.90
29571;DHT22;16814;52.118;11.436;2024-01-30T13:08:02;10.00;99.90
29571;DHT22;16814;52.118;11.436;2024-01-30T13:10:28;10.10;99.90
29571;DHT22;16814;52.118;11.436;2024-01-30T13:12:54;10.00;99.90
29571;DHT22;16814;52.118;11.436;2024-01-30T13:15:19;10.00;99.90
29571;DHT22;16814;52.118;11.436;2024-01-30T13:17:45;10.00;99.90
29571;DHT22;16814;52.118;11.436;2024-01-30T13:20:13;10.00;99.90
29571;DHT22;16814;52.118;11.436;2024-01-30T13:22:43;10.10;99.90
29571;DHT22;16814;52.118;11.436;2024-01-30T13:25:08;10.20;99.90
29571;DHT22;16814;52.118;11.436;2024-01-30T13:27:34;10.10;99.90
29571;DHT22;16814;52.118;11.436;2024-01-30T13:29:59;10.00;99.90
29571;DHT22;16814;52.118;11.436;2024-01-30T13:32:25;10.00;99.90
29571;DHT22;16814;52.118;11.436;2024-01-30T13:34:50;9.90;99.90
29571;DHT22;16814;52.118;11.436;2024-01-30T13:37:16;9.90;99.90
29571;DHT22;16814;52.118;11.436;2024-01-30T13:39:41;9.90;99.90
29571;DHT22;16814;52.118;11.436;2024-01-30T13:42:07;10.00;99.90
29571;DHT22;16814;52.118;11.436;2024-01-30T13:44:35;9.90;99.90
29571;DHT22;16814;52.118;11.436;2024-01-30T13:47:01;9.90;99.90
29571;DHT22;16814;52.118;11.436;2024-01-30T13:49:26;9.90;99.90
29571;DHT22;16814;52.118;11.436;2024-01-30T13:51:52;9.90;99.90
29571;DHT22;16814;52.118;11.436;2024-01-30T13:54:18;9.80;99.90
29571;DHT22;16814;52.118;11.436;2024-01-30T13:56:43;9.70;99.90
29571;DHT22;16814;52.118;11.436;2024-01-30T13:59:09;9.70;99.90
29571;DHT22;16814;52.118;11.436;2024-01-30T14:01:35;9.70;99.90
29571;DHT22;16814;52.118;11.436;2024-01-30T14:04:00;9.70;99.90
29571;DHT22;16814;52.118;11.436;2024-01-30T14:06:26;9.70;99.90
29571;DHT22;16814;52.118;11.436;2024-01-30T14:08:51;9.60;99.90
29571;DHT22;16814;52.118;11.436;2024-01-30T14:11:17;9.60;99.90
29571;DHT22;16814;52.118;11.436;2024-01-30T14:13:42;9.60;99.90
29571;DHT22;16814;52.118;11.436;2024-01-30T14:16:08;9.40;99.90
29571;DHT22;16814;52.118;11.436;2024-01-30T14:18:33;9.30;99.90
29571;DHT22;16814;52.118;11.436;2024-01-30T14:20:59;9.30;99.90
29571;DHT22;16814;52.118;11.436;2024-01-30T14:23:24;9.30;99.90
29571;DHT22;16814;52.118;11.436;2024-01-30T14:25:50;9.20;99.90
29571;DHT22;16814;52.118;11.436;2024-01-30T14:28:17;9.30;99.90
29571;DHT22;16814;52.118;11.436;2024-01-30T14:30:42;9.20;99.90
29571;DHT22;16814;52.118;11.436;2024-01-30T14:33:08;9.00;99.90
29571;DHT22;16814;52.118;11.436;2024-01-30T14:35:33;9.00;99.90
29571;DHT22;16814;52.118;11.436;2024-01-30T14:37:59;8.90;99.90
29571;DHT22;16814;52.118;11.436;2024-01-30T14:40:25;9.00;99.90
29571;DHT22;16814;52.118;11.436;2024-01-30T14:42:50;9.10;99.90
29571;DHT22;16814;52.118;11.436;2024-01-30T14:45:16;9.10;99.90
29571;DHT22;16814;52.118;11.436;2024-01-30T14:47:41;9.00;99.90
29571;DHT22;16814;52.118;11.436;2024-01-30T14:50:07;9.00;99.90
29571;DHT22;16814;52.118;11.436;2024-01-30T14:52:33;9.00;99.90
29571;DHT22;16814;52.118;11.436;2024-01-30T14:54:59;9.00;99.90
29571;DHT22;16814;52.118;11.436;2024-01-30T14:57:25;8.90;99.90
29571;DHT22;16814;52.118;11.436;2024-01-30T14:59:50;8.80;99.90
29571;DHT22;16814;52.118;11.436;2024-01-30T15:02:16;8.70;99.90
29571;DHT22;16814;52.118;11.436;2024-01-30T15:04:42;8.70;99.90
29571;DHT22;16814;52.118;11.436;2024-01-30T15:07:08;8.70;99.90
29571;DHT22;16814;52.118;11.436;2024-01-30T15:09:34;8.60;99.90
29571;DHT22;16814;52.118;11.436;2024-01-30T15:11:59;8.50;99.90
29571;DHT22;16814;52.118;11.436;2024-01-30T15:14:25;8.40;99.90
29571;DHT22;16814;52.118;11.436;2024-01-30T15:16:50;8.30;99.90
29571;DHT22;16814;52.118;11.436;2024-01-30T15:19:16;8.20;99.90
29571;DHT22;16814;52.118;11.436;2024-01-30T15:21:42;8.30;99.90
29571;DHT22;16814;52.118;11.436;2024-01-30T15:24:07;8.40;99.90